sensor_id;sensor_type;location;lat;lon;timestamp;P1;durP1;ratioP1;P2;durP2;ratioP2
6937;SDS011;40040;42.706;23.372;2023-12-14T00:01:40;21.13;;;11.67;;
6937;SDS011;40040;42.706;23.372;2023-12-14T00:04:09;21.63;;;11.70;;
6937;SDS011;40040;42.706;23.372;2023-12-14T00:06:35;30.13;;;13.03;;
6937;SDS011;40040;42.706;23.372;2023-12-14T00:09:02;25.43;;;12.23;;
6937;SDS011;40040;42.706;23.372;2023-12-14T00:11:29;21.53;;;11.97;;
6937;SDS011;40040;42.706;23.372;2023-12-14T00:13:56;28.43;;;13.90;;
6937;SDS011;40040;42.706;23.372;2023-12-14T00:16:22;24.87;;;12.93;;
6937;SDS011;40040;42.706;23.372;2023-12-14T00:18:49;22.57;;;12.20;;
6937;SDS011;40040;42.706;23.372;2023-12-14T00:21:17;23.03;;;11.43;;
6937;SDS011;40040;42.706;23.372;2023-12-14T00:23:44;35.70;;;14.23;;
6937;SDS011;40040;42.706;23.372;2023-12-14T00:26:11;49.20;;;18.93;;
6937;SDS011;40040;42.706;23.372;2023-12-14T00:28:38;42.73;;;17.70;;
6937;SDS011;40040;42.706;23.372;2023-12-14T00:31:04;52.73;;;18.33;;
6937;SDS011;40040;42.706;23.372;2023-12-14T00:33:31;72.80;;;22.00;;
6937;SDS011;40040;42.706;23.372;2023-12-14T00:35:58;41.50;;;15.97;;
6937;SDS011;40040;42.706;23.372;2023-12-14T00:38:26;37.03;;;14.63;;
6937;SDS011;40040;42.706;23.372;2023-12-14T00:40:53;66.73;;;21.10;;
6937;SDS011;40040;42.706;23.372;2023-12-14T00:43:20;60.20;;;19.53;;
6937;SDS011;40040;42.706;23.372;2023-12-14T00:45:47;47.17;;;16.70;;
6937;SDS011;40040;42.706;23.372;2023-12-14T00:48:13;59.20;;;20.63;;
6937;SDS011;40040;42.706;23.372;2023-12-14T00:50:40;49.87;;;18.67;;
6937;SDS011;40040;42.706;23.372;2023-12-14T00:53:07;44.90;;;17.63;;
6937;SDS011;40040;42.706;23.372;2023-12-14T00:55:35;34.70;;;15.57;;
6937;SDS011;40040;42.706;23.372;2023-12-14T00:58:02;37.63;;;15.10;;
6937;SDS011;40040;42.706;23.372;2023-12-14T01:00:29;35.83;;;14.83;;
6937;SDS011;40040;42.706;23.372;2023-12-14T01:02:56;37.43;;;16.37;;
6937;SDS011;40040;42.706;23.372;2023-12-14T01:05:23;27.50;;;15.10;;
6937;SDS011;40040;42.706;23.372;2023-12-14T01:07:50;51.60;;;19.27;;
6937;SDS011;40040;42.706;23.372;2023-12-14T01:10:16;47.33;;;18.87;;
6937;SDS011;40040;42.706;23.372;2023-12-14T01:12:45;35.00;;;15.47;;
6937;SDS011;40040;42.706;23.372;2023-12-14T01:15:11;37.00;;;16.03;;
6937;SDS011;40040;42.706;23.372;2023-12-14T01:17:38;27.77;;;13.90;;
6937;SDS011;40040;42.706;23.372;2023-12-14T01:20:05;32.97;;;15.63;;
6937;SDS011;40040;42.706;23.372;2023-12-14T01:22:33;32.37;;;15.70;;
6937;SDS011;40040;42.706;23.372;2023-12-14T01:25:00;37.47;;;15.93;;
6937;SDS011;40040;42.706;23.372;2023-12-14T01:27:27;32.03;;;15.57;;
6937;SDS011;40040;42.706;23.372;2023-12-14T01:29:55;32.53;;;15.70;;
6937;SDS011;40040;42.706;23.372;2023-12-14T01:32:22;38.93;;;17.57;;
6937;SDS011;40040;42.706;23.372;2023-12-14T01:34:49;37.07;;;17.80;;
6937;SDS011;40040;42.706;23.372;2023-12-14T01:37:16;35.00;;;17.33;;
6937;SDS011;40040;42.706;23.372;2023-12-14T01:39:43;32.17;;;17.10;;
6937;SDS011;40040;42.706;23.372;2023-12-14T01:42:09;40.57;;;18.70;;
6937;SDS011;40040;42.706;23.372;2023-12-14T01:44:36;42.33;;;20.30;;
6937;SDS011;40040;42.706;23.372;2023-12-14T01:47:04;39.53;;;19.37;;
6937;SDS011;40040;42.706;23.372;2023-12-14T01:49:31;35.87;;;17.33;;
6937;SDS011;40040;42.706;23.372;2023-12-14T01:51:58;32.37;;;16.83;;
6937;SDS011;40040;42.706;23.372;2023-12-14T01:54:25;35.33;;;17.50;;
6937;SDS011;40040;42.706;23.372;2023-12-14T01:56:52;36.47;;;16.60;;
6937;SDS011;40040;42.706;23.372;2023-12-14T01:59:19;34.93;;;17.17;;
6937;SDS011;40040;42.706;23.372;2023-12-14T02:01:46;37.57;;;16.30;;
6937;SDS011;40040;42.706;23.372;2023-12-14T02:04:20;29.57;;;14.90;;
6937;SDS011;40040;42.706;23.372;2023-12-14T02:06:47;37.23;;;18.40;;
6937;SDS011;40040;42.706;23.372;2023-12-14T02:09:14;31.57;;;17.87;;
6937;SDS011;40040;42.706;23.372;2023-12-14T02:11:41;42.53;;;20.60;;
6937;SDS011;40040;42.706;23.372;2023-12-14T02:14:08;46.07;;;21.40;;
6937;SDS011;40040;42.706;23.372;2023-12-14T02:16:36;57.47;;;24.43;;
6937;SDS011;40040;42.706;23.372;2023-12-14T02:19:04;43.23;;;21.07;;
6937;SDS011;40040;42.706;23.372;2023-12-14T02:21:32;35.77;;;19.20;;
6937;SDS011;40040;42.706;23.372;2023-12-14T02:24:00;32.03;;;16.87;;
6937;SDS011;40040;42.706;23.372;2023-12-14T02:26:27;37.73;;;17.57;;
6937;SDS011;40040;42.706;23.372;2023-12-14T02:28:54;36.47;;;16.40;;
6937;SDS011;40040;42.706;23.372;2023-12-14T02:31:20;28.80;;;15.63;;
6937;SDS011;40040;42.706;23.372;2023-12-14T02:33:48;27.73;;;13.57;;
6937;SDS011;40040;42.706;23.372;2023-12-14T02:36:15;28.87;;;14.73;;
6937;SDS011;40040;42.706;23.372;2023-12-14T02:38:41;26.97;;;13.43;;
6937;SDS011;40040;42.706;23.372;2023-12-14T02:41:10;25.20;;;13.90;;
6937;SDS011;40040;42.706;23.372;2023-12-14T02:43:37;22.93;;;12.30;;
6937;SDS011;40040;42.706;23.372;2023-12-14T02:46:05;26.83;;;13.43;;
6937;SDS011;40040;42.706;23.372;2023-12-14T02:48:32;25.57;;;12.80;;
6937;SDS011;40040;42.706;23.372;2023-12-14T02:50:59;27.00;;;13.10;;
6937;SDS011;40040;42.706;23.372;2023-12-14T02:53:26;25.77;;;13.03;;
6937;SDS011;40040;42.706;23.372;2023-12-14T02:55:53;25.43;;;13.50;;
6937;SDS011;40040;42.706;23.372;2023-12-14T02:58:21;48.23;;;19.87;;
6937;SDS011;40040;42.706;23.372;2023-12-14T03:00:48;36.00;;;16.77;;
6937;SDS011;40040;42.706;23.372;2023-12-14T03:03:15;31.87;;;15.50;;
6937;SDS011;40040;42.706;23.372;2023-12-14T03:05:42;29.13;;;15.60;;
6937;SDS011;40040;42.706;23.372;2023-12-14T03:08:08;42.50;;;18.63;;
6937;SDS011;40040;42.706;23.372;2023-12-14T03:10:35;32.03;;;16.57;;
6937;SDS011;40040;42.706;23.372;2023-12-14T03:13:02;33.77;;;17.13;;
6937;SDS011;40040;42.706;23.372;2023-12-14T03:15:30;31.50;;;16.83;;
6937;SDS011;40040;42.706;23.372;2023-12-14T03:17:57;34.17;;;15.57;;
6937;SDS011;40040;42.706;23.372;2023-12-14T03:20:24;30.80;;;16.07;;
6937;SDS011;40040;42.706;23.372;2023-12-14T03:22:51;29.10;;;16.50;;
6937;SDS011;40040;42.706;23.372;2023-12-14T03:25:17;30.00;;;16.40;;
6937;SDS011;40040;42.706;23.372;2023-12-14T03:27:44;29.63;;;16.80;;
6937;SDS011;40040;42.706;23.372;2023-12-14T03:30:11;33.03;;;17.17;;
6937;SDS011;40040;42.706;23.372;2023-12-14T03:32:39;33.70;;;16.87;;
6937;SDS011;40040;42.706;23.372;2023-12-14T03:35:06;29.87;;;16.27;;
6937;SDS011;40040;42.706;23.372;2023-12-14T03:37:33;42.57;;;23.73;;
6937;SDS011;40040;42.706;23.372;2023-12-14T03:40:01;55.77;;;28.43;;
6937;SDS011;40040;42.706;23.372;2023-12-14T03:42:28;48.87;;;26.67;;
6937;SDS011;40040;42.706;23.372;2023-12-14T03:44:55;59.53;;;30.00;;
6937;SDS011;40040;42.706;23.372;2023-12-14T03:47:22;44.47;;;24.07;;
6937;SDS011;40040;42.706;23.372;2023-12-14T03:49:50;63.20;;;32.40;;
6937;SDS011;40040;42.706;23.372;2023-12-14T03:52:17;51.80;;;27.50;;
6937;SDS011;40040;42.706;23.372;2023-12-14T03:54:43;47.77;;;24.30;;
6937;SDS011;40040;42.706;23.372;2023-12-14T03:57:10;49.63;;;23.30;;
6937;SDS011;40040;42.706;23.372;2023-12-14T03:59:38;51.57;;;25.17;;
6937;SDS011;40040;42.706;23.372;2023-12-14T04:02:05;58.43;;;28.10;;
6937;SDS011;40040;42.706;23.372;2023-12-14T04:04:32;65.47;;;31.07;;
6937;SDS011;40040;42.706;23.372;2023-12-14T04:07:00;44.77;;;23.13;;
6937;SDS011;40040;42.706;23.372;2023-12-14T04:09:27;51.60;;;25.17;;
6937;SDS011;40040;42.706;23.372;2023-12-14T04:11:54;50.27;;;26.17;;
6937;SDS011;40040;42.706;23.372;2023-12-14T04:14:21;48.43;;;25.13;;
6937;SDS011;40040;42.706;23.372;2023-12-14T04:16:47;47.73;;;24.70;;
6937;SDS011;40040;42.706;23.372;2023-12-14T04:19:14;43.07;;;22.23;;
6937;SDS011;40040;42.706;23.372;2023-12-14T04:21:41;35.90;;;18.13;;
6937;SDS011;40040;42.706;23.372;2023-12-14T04:24:09;28.53;;;15.50;;
6937;SDS011;40040;42.706;23.372;2023-12-14T04:26:37;36.30;;;16.57;;
6937;SDS011;40040;42.706;23.372;2023-12-14T04:29:05;29.63;;;16.10;;
6937;SDS011;40040;42.706;23.372;2023-12-14T04:31:33;32.00;;;17.23;;
6937;SDS011;40040;42.706;23.372;2023-12-14T04:34:00;34.20;;;17.93;;
6937;SDS011;40040;42.706;23.372;2023-12-14T04:36:27;35.67;;;17.47;;
6937;SDS011;40040;42.706;23.372;2023-12-14T04:38:54;38.77;;;19.23;;
6937;SDS011;40040;42.706;23.372;2023-12-14T04:41:22;32.83;;;17.70;;
6937;SDS011;40040;42.706;23.372;2023-12-14T04:43:49;34.30;;;19.47;;
6937;SDS011;40040;42.706;23.372;2023-12-14T04:46:15;42.90;;;20.77;;
6937;SDS011;40040;42.706;23.372;2023-12-14T04:48:42;62.00;;;25.63;;
6937;SDS011;40040;42.706;23.372;2023-12-14T04:51:11;75.20;;;27.97;;
6937;SDS011;40040;42.706;23.372;2023-12-14T04:53:38;313.70;;;67.47;;
6937;SDS011;40040;42.706;23.372;2023-12-14T04:56:09;98.13;;;33.33;;
6937;SDS011;40040;42.706;23.372;2023-12-14T04:58:38;50.57;;;24.40;;
6937;SDS011;40040;42.706;23.372;2023-12-14T05:01:05;56.00;;;24.00;;
6937;SDS011;40040;42.706;23.372;2023-12-14T05:03:32;111.47;;;40.03;;
6937;SDS011;40040;42.706;23.372;2023-12-14T05:05:59;70.27;;;29.63;;
6937;SDS011;40040;42.706;23.372;2023-12-14T05:08:26;75.33;;;29.90;;
6937;SDS011;40040;42.706;23.372;2023-12-14T05:10:53;113.27;;;43.43;;
6937;SDS011;40040;42.706;23.372;2023-12-14T05:13:19;79.53;;;35.93;;
6937;SDS011;40040;42.706;23.372;2023-12-14T05:15:47;77.53;;;34.57;;
6937;SDS011;40040;42.706;23.372;2023-12-14T05:18:14;73.47;;;33.90;;
6937;SDS011;40040;42.706;23.372;2023-12-14T05:20:41;78.07;;;34.57;;
6937;SDS011;40040;42.706;23.372;2023-12-14T05:23:08;66.93;;;33.60;;
6937;SDS011;40040;42.706;23.372;2023-12-14T05:25:34;70.80;;;34.57;;
6937;SDS011;40040;42.706;23.372;2023-12-14T05:28:02;66.43;;;33.23;;
6937;SDS011;40040;42.706;23.372;2023-12-14T05:30:28;68.37;;;34.07;;
6937;SDS011;40040;42.706;23.372;2023-12-14T05:32:57;73.83;;;34.90;;
6937;SDS011;40040;42.706;23.372;2023-12-14T05:35:23;82.10;;;38.30;;
6937;SDS011;40040;42.706;23.372;2023-12-14T05:37:50;90.67;;;40.23;;
6937;SDS011;40040;42.706;23.372;2023-12-14T05:40:18;88.30;;;39.70;;
6937;SDS011;40040;42.706;23.372;2023-12-14T05:42:45;85.33;;;39.53;;
6937;SDS011;40040;42.706;23.372;2023-12-14T05:45:11;80.37;;;36.87;;
6937;SDS011;40040;42.706;23.372;2023-12-14T05:47:38;90.47;;;39.67;;
6937;SDS011;40040;42.706;23.372;2023-12-14T05:50:08;393.30;;;139.40;;
6937;SDS011;40040;42.706;23.372;2023-12-14T05:52:35;202.20;;;79.63;;
6937;SDS011;40040;42.706;23.372;2023-12-14T05:55:02;236.23;;;84.67;;
6937;SDS011;40040;42.706;23.372;2023-12-14T05:57:29;280.20;;;103.47;;
6937;SDS011;40040;42.706;23.372;2023-12-14T05:59:56;328.83;;;121.13;;
6937;SDS011;40040;42.706;23.372;2023-12-14T06:02:23;291.00;;;105.17;;
6937;SDS011;40040;42.706;23.372;2023-12-14T06:04:49;201.37;;;75.00;;
6937;SDS011;40040;42.706;23.372;2023-12-14T06:07:17;218.67;;;83.00;;
6937;SDS011;40040;42.706;23.372;2023-12-14T06:09:44;219.27;;;85.70;;
6937;SDS011;40040;42.706;23.372;2023-12-14T06:12:11;194.97;;;70.10;;
6937;SDS011;40040;42.706;23.372;2023-12-14T06:14:39;176.27;;;68.77;;
6937;SDS011;40040;42.706;23.372;2023-12-14T06:17:05;156.73;;;63.57;;
6937;SDS011;40040;42.706;23.372;2023-12-14T06:19:33;154.13;;;60.40;;
6937;SDS011;40040;42.706;23.372;2023-12-14T06:21:59;153.43;;;59.20;;
6937;SDS011;40040;42.706;23.372;2023-12-14T06:24:27;160.17;;;63.20;;
6937;SDS011;40040;42.706;23.372;2023-12-14T06:26:54;156.80;;;65.77;;
6937;SDS011;40040;42.706;23.372;2023-12-14T06:29:21;166.73;;;65.97;;
6937;SDS011;40040;42.706;23.372;2023-12-14T06:31:48;163.63;;;66.63;;
6937;SDS011;40040;42.706;23.372;2023-12-14T06:34:16;124.30;;;50.50;;
6937;SDS011;40040;42.706;23.372;2023-12-14T06:36:43;98.40;;;46.87;;
6937;SDS011;40040;42.706;23.372;2023-12-14T06:39:11;99.10;;;43.97;;
6937;SDS011;40040;42.706;23.372;2023-12-14T06:41:39;70.63;;;35.43;;
6937;SDS011;40040;42.706;23.372;2023-12-14T06:44:06;108.60;;;45.67;;
6937;SDS011;40040;42.706;23.372;2023-12-14T06:46:34;106.67;;;46.20;;
6937;SDS011;40040;42.706;23.372;2023-12-14T06:49:01;99.73;;;44.13;;
6937;SDS011;40040;42.706;23.372;2023-12-14T06:51:27;141.50;;;60.37;;
6937;SDS011;40040;42.706;23.372;2023-12-14T06:53:54;110.73;;;51.80;;
6937;SDS011;40040;42.706;23.372;2023-12-14T06:56:21;184.60;;;79.40;;
6937;SDS011;40040;42.706;23.372;2023-12-14T06:58:49;141.37;;;61.30;;
6937;SDS011;40040;42.706;23.372;2023-12-14T07:01:16;146.90;;;63.57;;
6937;SDS011;40040;42.706;23.372;2023-12-14T07:03:43;129.67;;;56.90;;
6937;SDS011;40040;42.706;23.372;2023-12-14T07:06:11;105.37;;;47.40;;
6937;SDS011;40040;42.706;23.372;2023-12-14T07:08:39;113.23;;;51.00;;
6937;SDS011;40040;42.706;23.372;2023-12-14T07:11:06;126.07;;;54.83;;
6937;SDS011;40040;42.706;23.372;2023-12-14T07:13:33;107.33;;;50.10;;
6937;SDS011;40040;42.706;23.372;2023-12-14T07:16:04;146.77;;;61.53;;
6937;SDS011;40040;42.706;23.372;2023-12-14T07:18:31;181.17;;;77.43;;
6937;SDS011;40040;42.706;23.372;2023-12-14T07:20:58;142.27;;;60.53;;
6937;SDS011;40040;42.706;23.372;2023-12-14T07:23:24;137.13;;;56.20;;
6937;SDS011;40040;42.706;23.372;2023-12-14T07:25:52;112.87;;;50.30;;
6937;SDS011;40040;42.706;23.372;2023-12-14T07:28:19;108.97;;;49.63;;
6937;SDS011;40040;42.706;23.372;2023-12-14T07:30:46;107.10;;;48.23;;
6937;SDS011;40040;42.706;23.372;2023-12-14T07:33:14;91.90;;;44.10;;
6937;SDS011;40040;42.706;23.372;2023-12-14T07:35:41;100.10;;;46.23;;
6937;SDS011;40040;42.706;23.372;2023-12-14T07:38:08;103.70;;;46.10;;
6937;SDS011;40040;42.706;23.372;2023-12-14T07:40:35;92.13;;;43.37;;
6937;SDS011;40040;42.706;23.372;2023-12-14T07:43:03;89.73;;;44.37;;
6937;SDS011;40040;42.706;23.372;2023-12-14T07:45:30;109.93;;;53.37;;
6937;SDS011;40040;42.706;23.372;2023-12-14T07:47:57;87.93;;;42.77;;
6937;SDS011;40040;42.706;23.372;2023-12-14T07:50:25;155.53;;;69.43;;
6937;SDS011;40040;42.706;23.372;2023-12-14T07:52:52;163.87;;;74.13;;
6937;SDS011;40040;42.706;23.372;2023-12-14T07:55:19;175.87;;;80.30;;
6937;SDS011;40040;42.706;23.372;2023-12-14T07:57:46;164.47;;;72.37;;
6937;SDS011;40040;42.706;23.372;2023-12-14T08:00:14;133.43;;;58.27;;
6937;SDS011;40040;42.706;23.372;2023-12-14T08:02:41;173.70;;;64.23;;
6937;SDS011;40040;42.706;23.372;2023-12-14T08:05:08;132.07;;;55.03;;
6937;SDS011;40040;42.706;23.372;2023-12-14T08:07:37;177.27;;;78.20;;
6937;SDS011;40040;42.706;23.372;2023-12-14T08:10:04;145.33;;;62.53;;
6937;SDS011;40040;42.706;23.372;2023-12-14T08:12:31;129.30;;;54.23;;
6937;SDS011;40040;42.706;23.372;2023-12-14T08:14:58;133.87;;;55.17;;
6937;SDS011;40040;42.706;23.372;2023-12-14T08:17:24;124.10;;;55.43;;
6937;SDS011;40040;42.706;23.372;2023-12-14T08:19:53;122.20;;;50.70;;
6937;SDS011;40040;42.706;23.372;2023-12-14T08:22:20;117.00;;;48.90;;
6937;SDS011;40040;42.706;23.372;2023-12-14T08:24:48;120.93;;;53.07;;
6937;SDS011;40040;42.706;23.372;2023-12-14T08:27:15;117.73;;;48.37;;
6937;SDS011;40040;42.706;23.372;2023-12-14T08:29:43;104.70;;;47.97;;
6937;SDS011;40040;42.706;23.372;2023-12-14T08:32:10;112.07;;;52.43;;
6937;SDS011;40040;42.706;23.372;2023-12-14T08:34:37;102.87;;;48.97;;
6937;SDS011;40040;42.706;23.372;2023-12-14T08:37:04;96.60;;;44.90;;
6937;SDS011;40040;42.706;23.372;2023-12-14T08:39:30;84.10;;;39.97;;
6937;SDS011;40040;42.706;23.372;2023-12-14T08:41:59;127.68;;;54.03;;
6937;SDS011;40040;42.706;23.372;2023-12-14T08:44:25;92.07;;;44.83;;
6937;SDS011;40040;42.706;23.372;2023-12-14T08:46:52;91.53;;;43.40;;
6937;SDS011;40040;42.706;23.372;2023-12-14T08:49:19;91.70;;;45.50;;
6937;SDS011;40040;42.706;23.372;2023-12-14T08:51:48;77.97;;;38.42;;
6937;SDS011;40040;42.706;23.372;2023-12-14T08:54:16;73.18;;;36.90;;
6937;SDS011;40040;42.706;23.372;2023-12-14T08:56:43;71.80;;;37.17;;
6937;SDS011;40040;42.706;23.372;2023-12-14T08:59:12;82.63;;;37.35;;
6937;SDS011;40040;42.706;23.372;2023-12-14T09:01:38;71.18;;;35.38;;
6937;SDS011;40040;42.706;23.372;2023-12-14T09:04:05;69.05;;;34.97;;
6937;SDS011;40040;42.706;23.372;2023-12-14T09:06:32;64.15;;;35.38;;
6937;SDS011;40040;42.706;23.372;2023-12-14T09:08:59;74.90;;;38.40;;
6937;SDS011;40040;42.706;23.372;2023-12-14T09:11:26;70.18;;;40.53;;
6937;SDS011;40040;42.706;23.372;2023-12-14T09:13:52;97.03;;;43.05;;
6937;SDS011;40040;42.706;23.372;2023-12-14T09:16:20;86.93;;;43.63;;
6937;SDS011;40040;42.706;23.372;2023-12-14T09:18:47;77.57;;;41.95;;
6937;SDS011;40040;42.706;23.372;2023-12-14T09:21:14;97.82;;;43.38;;
6937;SDS011;40040;42.706;23.372;2023-12-14T09:23:41;80.97;;;38.63;;
6937;SDS011;40040;42.706;23.372;2023-12-14T09:26:08;70.85;;;37.45;;
6937;SDS011;40040;42.706;23.372;2023-12-14T09:28:35;69.70;;;37.15;;
6937;SDS011;40040;42.706;23.372;2023-12-14T09:31:03;66.55;;;33.90;;
6937;SDS011;40040;42.706;23.372;2023-12-14T09:33:31;64.22;;;32.67;;
6937;SDS011;40040;42.706;23.372;2023-12-14T09:35:58;64.75;;;31.45;;
6937;SDS011;40040;42.706;23.372;2023-12-14T09:38:25;54.55;;;28.55;;
6937;SDS011;40040;42.706;23.372;2023-12-14T09:40:51;58.97;;;33.05;;
6937;SDS011;40040;42.706;23.372;2023-12-14T09:43:18;66.28;;;34.95;;
6937;SDS011;40040;42.706;23.372;2023-12-14T09:45:46;67.00;;;35.50;;
6937;SDS011;40040;42.706;23.372;2023-12-14T09:48:15;61.58;;;36.25;;
6937;SDS011;40040;42.706;23.372;2023-12-14T09:50:43;66.07;;;37.20;;
6937;SDS011;40040;42.706;23.372;2023-12-14T09:53:12;83.22;;;40.67;;
6937;SDS011;40040;42.706;23.372;2023-12-14T09:55:39;77.47;;;41.42;;
6937;SDS011;40040;42.706;23.372;2023-12-14T09:58:05;81.43;;;42.45;;
6937;SDS011;40040;42.706;23.372;2023-12-14T10:00:35;97.93;;;49.97;;
6937;SDS011;40040;42.706;23.372;2023-12-14T10:03:22;110.43;;;54.05;;
6937;SDS011;40040;42.706;23.372;2023-12-14T10:05:52;120.63;;;58.67;;
6937;SDS011;40040;42.706;23.372;2023-12-14T10:08:19;127.90;;;61.60;;
6937;SDS011;40040;42.706;23.372;2023-12-14T10:10:47;98.63;;;48.80;;
6937;SDS011;40040;42.706;23.372;2023-12-14T10:13:16;98.13;;;48.17;;
6937;SDS011;40040;42.706;23.372;2023-12-14T10:15:43;89.82;;;43.78;;
6937;SDS011;40040;42.706;23.372;2023-12-14T10:18:11;71.90;;;36.60;;
6937;SDS011;40040;42.706;23.372;2023-12-14T10:20:38;67.45;;;36.45;;
6937;SDS011;40040;42.706;23.372;2023-12-14T10:23:07;67.75;;;38.13;;
6937;SDS011;40040;42.706;23.372;2023-12-14T10:25:35;87.47;;;40.53;;
6937;SDS011;40040;42.706;23.372;2023-12-14T10:28:03;66.53;;;37.35;;
6937;SDS011;40040;42.706;23.372;2023-12-14T10:30:30;75.35;;;39.38;;
6937;SDS011;40040;42.706;23.372;2023-12-14T10:32:57;77.30;;;37.25;;
6937;SDS011;40040;42.706;23.372;2023-12-14T10:35:24;76.47;;;38.72;;
6937;SDS011;40040;42.706;23.372;2023-12-14T10:37:51;77.25;;;39.45;;
6937;SDS011;40040;42.706;23.372;2023-12-14T10:40:20;80.15;;;37.53;;
6937;SDS011;40040;42.706;23.372;2023-12-14T10:42:49;78.68;;;38.53;;
6937;SDS011;40040;42.706;23.372;2023-12-14T10:45:17;72.63;;;37.63;;
6937;SDS011;40040;42.706;23.372;2023-12-14T10:47:45;81.10;;;41.40;;
6937;SDS011;40040;42.706;23.372;2023-12-14T10:50:14;77.40;;;40.70;;
6937;SDS011;40040;42.706;23.372;2023-12-14T10:52:42;83.43;;;41.28;;
6937;SDS011;40040;42.706;23.372;2023-12-14T10:55:11;81.75;;;40.97;;
6937;SDS011;40040;42.706;23.372;2023-12-14T10:57:46;44.55;;;24.20;;
6937;SDS011;40040;42.706;23.372;2023-12-14T11:00:13;44.28;;;21.17;;
6937;SDS011;40040;42.706;23.372;2023-12-14T11:02:45;28.88;;;15.68;;
6937;SDS011;40040;42.706;23.372;2023-12-14T11:05:13;21.15;;;11.73;;
6937;SDS011;40040;42.706;23.372;2023-12-14T11:07:45;17.13;;;9.98;;
6937;SDS011;40040;42.706;23.372;2023-12-14T11:10:12;14.73;;;9.48;;
6937;SDS011;40040;42.706;23.372;2023-12-14T11:12:51;10.45;;;7.68;;
6937;SDS011;40040;42.706;23.372;2023-12-14T11:15:21;11.55;;;7.22;;
6937;SDS011;40040;42.706;23.372;2023-12-14T11:20:50;8.43;;;5.30;;
6937;SDS011;40040;42.706;23.372;2023-12-14T11:23:27;4.05;;;3.65;;
6937;SDS011;40040;42.706;23.372;2023-12-14T11:25:58;4.07;;;3.55;;
6937;SDS011;40040;42.706;23.372;2023-12-14T11:28:29;5.05;;;3.65;;
6937;SDS011;40040;42.706;23.372;2023-12-14T11:30:57;5.50;;;3.20;;
6937;SDS011;40040;42.706;23.372;2023-12-14T11:33:24;3.67;;;3.33;;
6937;SDS011;40040;42.706;23.372;2023-12-14T11:35:53;2.72;;;2.42;;
6937;SDS011;40040;42.706;23.372;2023-12-14T11:38:20;2.40;;;2.20;;
6937;SDS011;40040;42.706;23.372;2023-12-14T11:40:49;2.05;;;1.77;;
6937;SDS011;40040;42.706;23.372;2023-12-14T11:43:16;6.03;;;2.38;;
6937;SDS011;40040;42.706;23.372;2023-12-14T11:45:47;2.70;;;1.60;;
6937;SDS011;40040;42.706;23.372;2023-12-14T11:48:14;1.80;;;1.70;;
6937;SDS011;40040;42.706;23.372;2023-12-14T11:50:41;2.83;;;2.00;;
6937;SDS011;40040;42.706;23.372;2023-12-14T11:53:09;3.35;;;1.60;;
6937;SDS011;40040;42.706;23.372;2023-12-14T11:55:37;4.72;;;2.67;;
6937;SDS011;40040;42.706;23.372;2023-12-14T11:58:06;3.10;;;1.75;;
6937;SDS011;40040;42.706;23.372;2023-12-14T12:00:33;18.52;;;6.35;;
6937;SDS011;40040;42.706;23.372;2023-12-14T12:03:11;10.10;;;4.10;;
6937;SDS011;40040;42.706;23.372;2023-12-14T12:05:39;27.88;;;11.93;;
6937;SDS011;40040;42.706;23.372;2023-12-14T12:08:08;16.52;;;8.07;;
6937;SDS011;40040;42.706;23.372;2023-12-14T12:10:36;12.65;;;5.90;;
6937;SDS011;40040;42.706;23.372;2023-12-14T12:13:04;21.73;;;9.40;;
6937;SDS011;40040;42.706;23.372;2023-12-14T12:15:33;8.60;;;4.75;;
6937;SDS011;40040;42.706;23.372;2023-12-14T12:18:02;5.13;;;3.45;;
6937;SDS011;40040;42.706;23.372;2023-12-14T12:20:31;4.90;;;3.58;;
6937;SDS011;40040;42.706;23.372;2023-12-14T12:22:58;7.47;;;4.35;;
6937;SDS011;40040;42.706;23.372;2023-12-14T12:25:25;5.90;;;4.50;;
6937;SDS011;40040;42.706;23.372;2023-12-14T12:27:53;10.65;;;4.90;;
6937;SDS011;40040;42.706;23.372;2023-12-14T12:30:20;2.10;;;2.00;;
6937;SDS011;40040;42.706;23.372;2023-12-14T12:32:47;3.17;;;2.03;;
6937;SDS011;40040;42.706;23.372;2023-12-14T12:35:15;13.63;;;6.78;;
6937;SDS011;40040;42.706;23.372;2023-12-14T12:37:43;24.58;;;12.00;;
6937;SDS011;40040;42.706;23.372;2023-12-14T12:40:10;5.38;;;4.20;;
6937;SDS011;40040;42.706;23.372;2023-12-14T12:42:37;10.52;;;5.30;;
6937;SDS011;40040;42.706;23.372;2023-12-14T12:45:04;2.60;;;2.40;;
6937;SDS011;40040;42.706;23.372;2023-12-14T12:47:32;4.50;;;3.00;;
6937;SDS011;40040;42.706;23.372;2023-12-14T12:49:59;2.08;;;1.88;;
6937;SDS011;40040;42.706;23.372;2023-12-14T12:52:26;10.70;;;3.92;;
6937;SDS011;40040;42.706;23.372;2023-12-14T12:54:54;7.45;;;4.00;;
6937;SDS011;40040;42.706;23.372;2023-12-14T12:57:21;5.20;;;2.70;;
6937;SDS011;40040;42.706;23.372;2023-12-14T12:59:48;6.90;;;4.20;;
6937;SDS011;40040;42.706;23.372;2023-12-14T13:02:14;5.00;;;2.55;;
6937;SDS011;40040;42.706;23.372;2023-12-14T13:04:41;6.97;;;3.78;;
6937;SDS011;40040;42.706;23.372;2023-12-14T13:07:08;2.42;;;2.22;;
6937;SDS011;40040;42.706;23.372;2023-12-14T13:09:35;3.42;;;2.58;;
6937;SDS011;40040;42.706;23.372;2023-12-14T13:12:04;9.55;;;4.75;;
6937;SDS011;40040;42.706;23.372;2023-12-14T13:14:31;5.40;;;2.72;;
6937;SDS011;40040;42.706;23.372;2023-12-14T13:16:58;5.35;;;3.35;;
6937;SDS011;40040;42.706;23.372;2023-12-14T13:19:25;2.70;;;2.13;;
6937;SDS011;40040;42.706;23.372;2023-12-14T13:21:54;4.82;;;3.13;;
6937;SDS011;40040;42.706;23.372;2023-12-14T13:24:22;6.75;;;3.42;;
6937;SDS011;40040;42.706;23.372;2023-12-14T13:26:49;2.25;;;1.80;;
6937;SDS011;40040;42.706;23.372;2023-12-14T13:29:17;4.10;;;2.90;;
6937;SDS011;40040;42.706;23.372;2023-12-14T13:31:45;5.55;;;3.28;;
6937;SDS011;40040;42.706;23.372;2023-12-14T13:34:12;2.53;;;2.40;;
6937;SDS011;40040;42.706;23.372;2023-12-14T13:36:39;2.92;;;2.40;;
6937;SDS011;40040;42.706;23.372;2023-12-14T13:39:06;3.13;;;2.50;;
6937;SDS011;40040;42.706;23.372;2023-12-14T13:41:33;2.42;;;2.22;;
6937;SDS011;40040;42.706;23.372;2023-12-14T13:44:00;3.70;;;2.47;;
6937;SDS011;40040;42.706;23.372;2023-12-14T13:46:28;2.97;;;2.00;;
6937;SDS011;40040;42.706;23.372;2023-12-14T13:48:55;1.70;;;1.58;;
6937;SDS011;40040;42.706;23.372;2023-12-14T13:51:22;3.33;;;1.65;;
6937;SDS011;40040;42.706;23.372;2023-12-14T13:53:49;2.33;;;2.00;;
6937;SDS011;40040;42.706;23.372;2023-12-14T13:56:16;3.78;;;3.10;;
6937;SDS011;40040;42.706;23.372;2023-12-14T13:58:43;4.10;;;2.85;;
6937;SDS011;40040;42.706;23.372;2023-12-14T14:01:10;4.22;;;2.80;;
6937;SDS011;40040;42.706;23.372;2023-12-14T14:03:38;4.32;;;2.55;;
6937;SDS011;40040;42.706;23.372;2023-12-14T14:06:07;2.25;;;1.70;;
6937;SDS011;40040;42.706;23.372;2023-12-14T14:08:35;1.77;;;1.67;;
6937;SDS011;40040;42.706;23.372;2023-12-14T14:11:02;3.00;;;1.70;;
6937;SDS011;40040;42.706;23.372;2023-12-14T14:13:29;3.47;;;2.20;;
6937;SDS011;40040;42.706;23.372;2023-12-14T14:15:56;8.90;;;4.38;;
6937;SDS011;40040;42.706;23.372;2023-12-14T14:18:23;6.40;;;3.47;;
6937;SDS011;40040;42.706;23.372;2023-12-14T14:20:51;4.82;;;3.42;;
6937;SDS011;40040;42.706;23.372;2023-12-14T14:23:18;5.22;;;3.75;;
6937;SDS011;40040;42.706;23.372;2023-12-14T14:25:45;10.40;;;5.28;;
6937;SDS011;40040;42.706;23.372;2023-12-14T14:28:12;7.88;;;3.67;;